createdAt,value
2023-09-22T00:01:26.875Z,55.70
2023-09-22T00:03:53.885Z,55.82
2023-09-22T00:06:23.246Z,55.93
2023-09-22T00:08:50.097Z,55.91
2023-09-22T00:11:17.129Z,55.77
2023-09-22T00:13:43.881Z,55.73
2023-09-22T00:16:11.237Z,55.47
2023-09-22T00:18:37.884Z,55.47
2023-09-22T00:21:05.820Z,55.32
2023-09-22T00:23:32.560Z,55.59
2023-09-22T00:25:59.084Z,55.30
2023-09-22T00:28:25.652Z,55.49
2023-09-22T00:30:52.348Z,55.53
2023-09-22T00:33:19.279Z,55.25
2023-09-22T00:35:45.839Z,55.19
2023-09-22T00:38:12.335Z,55.38
2023-09-22T00:40:38.778Z,55.26
2023-09-22T00:43:12.797Z,55.26
2023-09-22T00:45:42.359Z,54.98
2023-09-22T00:48:09.833Z,55.20
2023-09-22T00:50:39.740Z,54.97
2023-09-22T00:53:06.457Z,55.07
2023-09-22T00:55:32.929Z,55.00
2023-09-22T00:58:00.235Z,54.85
2023-09-22T01:00:28.384Z,55.18
2023-09-22T01:02:55.818Z,55.01
2023-09-22T01:05:22.524Z,54.84
2023-09-22T01:07:49.004Z,55.14
2023-09-22T01:10:15.665Z,55.19
2023-09-22T01:12:42.155Z,55.06
2023-09-22T01:15:10.361Z,55.22
2023-09-22T01:17:39.002Z,55.21
2023-09-22T01:20:08.556Z,55.15
2023-09-22T01:22:35.297Z,55.13
2023-09-22T01:25:01.835Z,54.92
2023-09-22T01:27:28.381Z,55.16
2023-09-22T01:29:54.856Z,55.07
2023-09-22T01:32:21.297Z,55.22
2023-09-22T01:34:47.770Z,54.78
2023-09-22T01:37:14.287Z,55.18
2023-09-22T01:39:42.019Z,55.13
2023-09-22T01:42:09.481Z,55.18
2023-09-22T01:44:36.193Z,55.21
2023-09-22T01:47:02.723Z,55.01
2023-09-22T01:49:29.168Z,55.36
2023-09-22T01:51:55.645Z,55.21
2023-09-22T01:54:22.214Z,55.20
2023-09-22T01:56:48.830Z,55.18
2023-09-22T01:59:15.291Z,55.29
2023-09-22T02:01:41.793Z,54.82
2023-09-22T02:04:08.444Z,55.28
2023-09-22T02:06:35.068Z,55.15
2023-09-22T02:09:01.561Z,55.12
2023-09-22T02:11:28.010Z,55.01
2023-09-22T02:13:55.232Z,55.01
2023-09-22T02:16:21.910Z,54.85
2023-09-22T02:18:48.700Z,54.90
2023-09-22T02:21:17.655Z,54.85
2023-09-22T02:23:44.692Z,54.98
2023-09-22T02:26:11.153Z,54.86
2023-09-22T02:28:38.340Z,55.09
2023-09-22T02:31:05.012Z,54.83
2023-09-22T02:33:32.004Z,54.85
2023-09-22T02:36:00.447Z,54.90
2023-09-22T02:38:27.851Z,54.90
2023-09-22T02:40:54.434Z,54.86
2023-09-22T02:43:20.868Z,55.20
2023-09-22T02:45:47.461Z,55.08
2023-09-22T02:48:14.039Z,54.88
2023-09-22T02:50:40.537Z,54.99
2023-09-22T02:53:09.561Z,54.98
2023-09-22T02:55:38.323Z,55.13
2023-09-22T02:58:05.174Z,54.97
2023-09-22T03:00:31.753Z,54.77
2023-09-22T03:02:58.431Z,54.87
2023-09-22T03:05:24.943Z,54.80
2023-09-22T03:07:51.991Z,55.03
2023-09-22T03:10:18.610Z,54.79
2023-09-22T03:12:45.790Z,54.82
2023-09-22T03:15:13.765Z,54.88
2023-09-22T03:17:40.725Z,54.81
2023-09-22T03:20:14.153Z,54.70
2023-09-22T03:22:41.253Z,54.74
2023-09-22T03:25:09.601Z,54.86
2023-09-22T03:27:36.271Z,54.94
2023-09-22T03:30:03.518Z,54.78
2023-09-22T03:32:30.996Z,54.92
2023-09-22T03:34:58.689Z,54.97
2023-09-22T03:37:30.000Z,54.85
2023-09-22T03:39:56.754Z,54.71
2023-09-22T03:42:23.572Z,54.70
2023-09-22T03:44:50.249Z,54.86
2023-09-22T03:47:16.661Z,54.91
2023-09-22T03:49:43.330Z,54.96
2023-09-22T03:52:09.777Z,54.55
2023-09-22T03:54:37.257Z,54.62
2023-09-22T03:57:03.797Z,54.71
2023-09-22T03:59:30.701Z,54.75
2023-09-22T04:01:57.160Z,54.70
2023-09-22T04:04:23.903Z,54.88
2023-09-22T04:06:51.624Z,54.72
2023-09-22T04:09:18.132Z,54.61
2023-09-22T04:11:44.650Z,54.77
2023-09-22T04:14:11.664Z,54.78
2023-09-22T04:16:41.129Z,54.70
2023-09-22T04:19:10.806Z,54.64
2023-09-22T04:21:44.174Z,54.42
2023-09-22T04:24:12.326Z,54.62
2023-09-22T04:26:44.913Z,54.83
2023-09-22T04:29:11.828Z,54.90
2023-09-22T04:31:38.633Z,54.86
2023-09-22T04:34:05.177Z,54.57
2023-09-22T04:36:32.433Z,54.74
2023-09-22T04:38:58.993Z,54.70
2023-09-22T04:41:25.402Z,54.56
2023-09-22T04:43:54.880Z,54.83
2023-09-22T04:46:21.466Z,54.54
2023-09-22T04:48:48.240Z,54.72
2023-09-22T04:51:15.889Z,54.80
2023-09-22T04:53:42.753Z,54.50
2023-09-22T04:56:09.346Z,54.67
2023-09-22T04:58:39.024Z,54.68
2023-09-22T05:01:05.579Z,54.75
2023-09-22T05:03:32.694Z,54.55
2023-09-22T05:06:07.298Z,54.50
2023-09-22T05:08:34.735Z,54.63
2023-09-22T05:11:09.337Z,54.78
2023-09-22T05:13:37.203Z,54.54
2023-09-22T05:16:07.354Z,54.83
2023-09-22T05:18:34.497Z,54.54
2023-09-22T05:21:01.902Z,54.74
2023-09-22T05:23:33.267Z,54.92
2023-09-22T05:26:00.249Z,55.11
2023-09-22T05:28:26.677Z,55.18
2023-09-22T05:30:53.319Z,55.40
2023-09-22T05:33:20.337Z,55.72
2023-09-22T05:35:46.794Z,55.75
2023-09-22T05:38:13.844Z,55.83
2023-09-22T05:40:40.257Z,55.60
2023-09-22T05:43:06.736Z,55.81
2023-09-22T05:45:33.231Z,55.48
2023-09-22T05:47:59.966Z,55.73
2023-09-22T05:50:26.523Z,55.48
2023-09-22T05:52:52.995Z,55.60
2023-09-22T05:55:20.220Z,55.56
2023-09-22T05:57:52.165Z,55.67
2023-09-22T06:00:19.070Z,55.54
2023-09-22T06:02:51.086Z,55.59
2023-09-22T06:05:19.058Z,55.42
2023-09-22T06:07:45.590Z,55.59
2023-09-22T06:10:12.586Z,55.56
2023-09-22T06:12:39.356Z,55.44
2023-09-22T06:15:08.626Z,55.51
2023-09-22T06:17:35.989Z,55.52
2023-09-22T06:20:09.697Z,55.54
2023-09-22T06:22:36.765Z,55.33
2023-09-22T06:25:03.650Z,55.34
2023-09-22T06:27:30.141Z,55.16
2023-09-22T06:29:56.662Z,54.90
2023-09-22T06:32:23.205Z,54.94
2023-09-22T06:34:49.780Z,54.93
2023-09-22T06:37:17.161Z,55.04
2023-09-22T06:39:43.820Z,55.07
2023-09-22T06:42:10.422Z,55.16
2023-09-22T06:44:36.891Z,54.93
2023-09-22T06:47:04.381Z,55.09
2023-09-22T06:49:30.893Z,54.97
2023-09-22T06:51:58.330Z,55.15
2023-09-22T06:54:24.901Z,55.00
2023-09-22T06:56:53.311Z,54.89
2023-09-22T06:59:23.597Z,54.83
2023-09-22T07:01:50.087Z,54.88
2023-09-22T07:04:17.627Z,54.82
2023-09-22T07:06:44.136Z,54.77
2023-09-22T07:09:12.904Z,55.03
2023-09-22T07:11:41.589Z,54.98
2023-09-22T07:14:08.680Z,54.67
2023-09-22T07:16:35.312Z,54.62
2023-09-22T07:19:02.158Z,54.54
2023-09-22T07:21:29.100Z,54.44
2023-09-22T07:23:57.190Z,54.13
2023-09-22T07:26:24.285Z,54.07
2023-09-22T07:28:50.752Z,54.15
2023-09-22T07:31:19.697Z,54.13
2023-09-22T07:33:46.355Z,54.01
2023-09-22T07:36:14.056Z,54.00
2023-09-22T07:38:40.947Z,53.57
2023-09-22T07:41:07.883Z,53.61
2023-09-22T07:43:34.541Z,53.31
2023-09-22T07:46:05.975Z,53.09
2023-09-22T07:48:32.805Z,53.22
2023-09-22T07:51:00.711Z,52.62
2023-09-22T07:53:27.203Z,52.73
2023-09-22T07:55:56.595Z,52.84
2023-09-22T07:58:23.450Z,52.66
2023-09-22T08:00:49.974Z,52.82
2023-09-22T08:03:19.986Z,52.60
2023-09-22T08:05:46.788Z,52.68
2023-09-22T08:08:14.782Z,52.78
2023-09-22T08:10:41.423Z,52.39
2023-09-22T08:13:11.200Z,52.53
2023-09-22T08:15:39.190Z,52.95
2023-09-22T08:18:07.338Z,52.66
2023-09-22T08:20:34.713Z,52.60
2023-09-22T08:23:01.393Z,52.65
2023-09-22T08:25:28.690Z,52.88
2023-09-22T08:27:55.978Z,52.80
2023-09-22T08:30:22.970Z,52.71
2023-09-22T08:32:49.752Z,52.73
2023-09-22T08:35:19.133Z,52.68
2023-09-22T08:37:45.628Z,52.93
2023-09-22T08:40:16.124Z,52.70
2023-09-22T08:42:45.065Z,52.56
2023-09-22T08:45:12.134Z,52.41
2023-09-22T08:47:42.496Z,52.66
2023-09-22T08:50:10.639Z,52.30
2023-09-22T08:52:39.202Z,52.41
2023-09-22T08:55:09.317Z,52.29
2023-09-22T08:57:36.876Z,51.92
2023-09-22T09:00:11.584Z,52.02
2023-09-22T09:02:38.517Z,52.07
2023-09-22T09:05:25.271Z,52.24
2023-09-22T09:07:52.838Z,51.85
2023-09-22T09:10:29.693Z,51.54
2023-09-22T09:12:56.912Z,51.86
2023-09-22T09:15:25.592Z,51.85
2023-09-22T09:18:05.291Z,52.14
2023-09-22T09:20:36.164Z,52.15
2023-09-22T09:23:16.944Z,52.25
2023-09-22T09:25:44.965Z,52.06
2023-09-22T09:28:12.740Z,52.28
2023-09-22T09:30:40.184Z,52.25
2023-09-22T09:33:13.560Z,51.93
2023-09-22T09:35:50.533Z,51.77
2023-09-22T09:38:18.833Z,51.88
2023-09-22T09:40:45.492Z,51.92
2023-09-22T09:43:13.070Z,51.67
2023-09-22T09:45:52.691Z,51.37
2023-09-22T09:48:20.600Z,51.11
2023-09-22T09:50:48.986Z,50.57
2023-09-22T09:53:22.617Z,50.81
2023-09-22T09:55:50.550Z,50.40
2023-09-22T09:58:17.916Z,50.63
2023-09-22T10:00:44.662Z,50.15
2023-09-22T10:03:12.761Z,50.28
2023-09-22T10:05:39.723Z,50.14
2023-09-22T10:08:08.212Z,50.12
2023-09-22T10:10:36.511Z,50.01
2023-09-22T10:13:03.748Z,50.03
2023-09-22T10:15:50.244Z,50.01
2023-09-22T10:18:18.361Z,50.34
2023-09-22T10:20:48.551Z,50.03
2023-09-22T10:23:24.192Z,50.48
2023-09-22T10:26:05.995Z,50.29
2023-09-22T10:28:32.636Z,50.46
2023-09-22T10:30:59.229Z,50.10
2023-09-22T10:33:31.446Z,49.99
2023-09-22T10:35:59.273Z,50.17
2023-09-22T10:38:26.331Z,50.34
2023-09-22T10:41:05.621Z,50.53
2023-09-22T10:43:37.464Z,50.52
2023-09-22T10:46:04.529Z,50.67
2023-09-22T10:48:36.632Z,50.80
2023-09-22T10:53:39.857Z,50.75
2023-09-22T10:56:06.877Z,50.89
2023-09-22T10:58:33.471Z,51.43
2023-09-22T11:01:08.193Z,51.04
2023-09-22T11:03:34.772Z,51.18
2023-09-22T11:06:02.061Z,51.41
2023-09-22T11:08:28.622Z,51.31
2023-09-22T11:10:56.317Z,51.39
2023-09-22T11:13:23.196Z,51.34
2023-09-22T11:15:51.118Z,51.28
2023-09-22T11:18:23.594Z,51.31
2023-09-22T11:20:54.912Z,51.53
2023-09-22T11:23:21.825Z,51.54
2023-09-22T11:25:57.588Z,51.58
2023-09-22T11:28:27.232Z,51.95
2023-09-22T11:30:54.801Z,51.68
2023-09-22T11:33:21.666Z,51.91
2023-09-22T11:35:53.661Z,52.15
2023-09-22T11:38:27.423Z,52.16
2023-09-22T11:41:03.985Z,52.27
2023-09-22T11:43:30.766Z,52.40
2023-09-22T11:46:11.032Z,52.09
2023-09-22T11:48:57.336Z,52.31
2023-09-22T11:51:23.864Z,52.29
2023-09-22T11:53:50.347Z,52.39
2023-09-22T11:56:17.600Z,52.32
2023-09-22T11:58:44.182Z,52.19
2023-09-22T12:01:11.021Z,52.55
2023-09-22T12:03:37.586Z,52.34
2023-09-22T12:06:04.306Z,52.65
2023-09-22T12:08:30.876Z,52.45
2023-09-22T12:10:57.452Z,52.62
2023-09-22T12:13:24.106Z,52.57
2023-09-22T12:15:50.670Z,52.74
2023-09-22T12:18:17.210Z,52.76
2023-09-22T12:20:43.721Z,52.87
2023-09-22T12:23:10.621Z,52.78
2023-09-22T12:25:37.131Z,52.55
2023-09-22T12:28:03.710Z,52.54
2023-09-22T12:30:30.557Z,52.60
2023-09-22T12:32:57.372Z,52.64
2023-09-22T12:35:24.309Z,52.93
2023-09-22T12:37:53.974Z,52.92
2023-09-22T12:40:20.484Z,52.72
2023-09-22T12:42:46.998Z,53.02
2023-09-22T12:45:13.505Z,52.78
2023-09-22T12:47:40.015Z,52.70
2023-09-22T12:50:09.744Z,52.73
2023-09-22T12:52:36.295Z,53.00
2023-09-22T12:55:02.830Z,52.80
2023-09-22T12:57:29.343Z,53.01
2023-09-22T12:59:57.677Z,52.74
2023-09-22T13:02:24.582Z,52.85
2023-09-22T13:04:51.617Z,52.80
2023-09-22T13:07:19.981Z,51.99
2023-09-22T13:09:47.692Z,52.22
2023-09-22T13:12:14.510Z,51.68
2023-09-22T13:14:41.083Z,50.89
2023-09-22T13:17:07.822Z,51.25
2023-09-22T13:19:34.568Z,50.76
2023-09-22T13:22:01.697Z,49.86
2023-09-22T13:24:28.297Z,49.55
2023-09-22T13:26:55.630Z,49.66
2023-09-22T13:29:23.027Z,48.77
2023-09-22T13:31:50.866Z,49.24
2023-09-22T13:36:44.187Z,48.54
2023-09-22T13:39:10.677Z,49.19
2023-09-22T13:41:37.177Z,49.08
2023-09-22T13:44:03.762Z,49.28
2023-09-22T13:46:30.370Z,49.48
2023-09-22T13:48:56.889Z,49.57
2023-09-22T13:51:23.338Z,49.19
2023-09-22T13:53:49.799Z,49.03
2023-09-22T13:56:17.802Z,49.15
2023-09-22T13:58:44.968Z,49.30
2023-09-22T14:01:14.987Z,49.16
2023-09-22T14:03:42.087Z,49.25
2023-09-22T14:06:15.161Z,48.94
2023-09-22T14:08:42.564Z,49.53
2023-09-22T14:11:12.136Z,49.27
2023-09-22T14:13:40.623Z,49.08
2023-09-22T14:16:07.648Z,48.98
2023-09-22T14:18:34.271Z,49.01
2023-09-22T14:21:00.801Z,49.02
2023-09-22T14:23:27.448Z,49.15
2023-09-22T14:25:59.966Z,49.12
2023-09-22T14:28:28.221Z,49.15
2023-09-22T14:30:55.023Z,49.34
2023-09-22T14:33:21.552Z,49.24
2023-09-22T14:35:48.039Z,49.25
2023-09-22T14:38:15.351Z,48.99
2023-09-22T14:40:42.583Z,48.92
2023-09-22T14:43:09.218Z,49.34
2023-09-22T14:45:39.424Z,49.22
2023-09-22T14:48:07.130Z,49.31
2023-09-22T14:50:33.782Z,48.95
2023-09-22T14:53:00.563Z,49.45
2023-09-22T14:55:27.336Z,49.14
2023-09-22T14:57:53.849Z,49.38
2023-09-22T15:00:22.654Z,49.37
2023-09-22T15:02:50.720Z,49.46
2023-09-22T15:05:17.358Z,49.19
2023-09-22T15:07:44.886Z,49.33
2023-09-22T15:10:11.474Z,49.25
2023-09-22T15:12:38.197Z,49.49
2023-09-22T15:15:06.528Z,49.72
2023-09-22T15:17:33.550Z,49.64
2023-09-22T15:20:00.343Z,49.79
2023-09-22T15:22:29.716Z,49.85
2023-09-22T15:24:56.400Z,49.65
2023-09-22T15:27:23.041Z,49.82
2023-09-22T15:29:49.521Z,49.54
2023-09-22T15:32:16.118Z,49.60
2023-09-22T15:34:43.582Z,49.65
2023-09-22T15:37:10.876Z,49.18
2023-09-22T15:39:37.580Z,49.51
2023-09-22T15:42:07.297Z,49.29
2023-09-22T15:44:34.484Z,49.44
2023-09-22T15:47:01.747Z,49.62
2023-09-22T15:49:31.546Z,49.48
2023-09-22T15:51:58.583Z,49.73
2023-09-22T15:54:25.024Z,49.92
2023-09-22T15:56:51.966Z,50.05
2023-09-22T15:59:18.421Z,50.04
2023-09-22T16:01:45.619Z,50.20
2023-09-22T16:04:12.122Z,50.34
2023-09-22T16:06:38.676Z,50.36
2023-09-22T16:09:05.921Z,49.80
2023-09-22T16:11:32.496Z,50.34
2023-09-22T16:13:58.949Z,50.43
2023-09-22T16:16:25.663Z,50.33
2023-09-22T16:18:52.224Z,50.55
2023-09-22T16:21:18.760Z,50.53
2023-09-22T16:23:45.242Z,50.57
2023-09-22T16:26:12.170Z,50.83
2023-09-22T16:28:39.371Z,50.62
2023-09-22T16:31:07.021Z,50.83
2023-09-22T16:33:35.634Z,50.67
2023-09-22T16:36:03.877Z,50.98
2023-09-22T16:38:35.593Z,50.84
2023-09-22T16:41:04.366Z,51.00
2023-09-22T16:43:32.784Z,50.96
2023-09-22T16:46:00.261Z,50.90
2023-09-22T16:48:27.109Z,51.03
2023-09-22T16:50:54.075Z,51.16
2023-09-22T16:53:21.175Z,51.51
2023-09-22T16:55:50.722Z,51.65
2023-09-22T16:58:17.365Z,51.51
2023-09-22T17:00:43.941Z,51.41
2023-09-22T17:03:10.622Z,51.32
2023-09-22T17:05:37.197Z,51.68
2023-09-22T17:08:06.918Z,51.75
2023-09-22T17:10:34.855Z,51.55
2023-09-22T17:13:01.338Z,51.89
2023-09-22T17:15:29.071Z,51.68
2023-09-22T17:17:55.539Z,51.77
2023-09-22T17:20:22.289Z,51.92
2023-09-22T17:22:49.207Z,52.14
2023-09-22T17:25:15.821Z,51.99
2023-09-22T17:27:42.493Z,51.88
2023-09-22T17:30:09.335Z,52.18
2023-09-22T17:32:36.693Z,51.85
2023-09-22T17:35:03.688Z,51.90
2023-09-22T17:37:31.462Z,52.25
2023-09-22T17:39:58.044Z,52.18
2023-09-22T17:42:24.504Z,52.17
2023-09-22T17:44:51.031Z,52.25
2023-09-22T17:47:17.828Z,52.08
2023-09-22T17:49:44.735Z,52.07
2023-09-22T17:52:11.232Z,52.14
2023-09-22T17:54:37.769Z,52.34
2023-09-22T17:57:04.738Z,52.13
2023-09-22T17:59:32.702Z,52.32
2023-09-22T18:01:59.406Z,52.43
2023-09-22T18:04:26.243Z,52.56
2023-09-22T18:06:52.832Z,52.46
2023-09-22T18:09:20.738Z,52.33
2023-09-22T18:11:47.376Z,52.35
2023-09-22T18:14:15.484Z,52.43
2023-09-22T18:16:45.173Z,52.39
2023-09-22T18:19:11.831Z,52.66
2023-09-22T18:21:38.546Z,52.58
2023-09-22T18:24:05.231Z,52.57
2023-09-22T18:26:35.735Z,52.75
2023-09-22T18:29:02.577Z,52.80
2023-09-22T18:31:30.295Z,52.60
2023-09-22T18:33:59.246Z,53.03
2023-09-22T18:36:25.908Z,52.98
2023-09-22T18:38:52.448Z,52.86
2023-09-22T18:41:19.315Z,53.21
2023-09-22T18:43:45.993Z,53.30
2023-09-22T18:46:15.727Z,53.15
2023-09-22T18:48:42.478Z,53.40
2023-09-22T18:51:09.340Z,53.20
2023-09-22T18:53:42.754Z,53.74
2023-09-22T18:59:01.637Z,53.80
2023-09-22T19:01:29.922Z,54.06
2023-09-22T19:03:57.468Z,54.45
2023-09-22T19:06:24.535Z,54.15
2023-09-22T19:08:51.164Z,54.21
2023-09-22T19:11:20.638Z,53.99
2023-09-22T19:13:47.302Z,54.32
2023-09-22T19:16:13.786Z,54.19
2023-09-22T19:21:17.258Z,54.18
2023-09-22T19:23:44.341Z,54.32
2023-09-22T19:26:11.529Z,54.00
2023-09-22T19:28:41.768Z,54.24
2023-09-22T19:31:11.143Z,54.01
2023-09-22T19:33:37.783Z,53.79
2023-09-22T19:36:04.798Z,54.04
2023-09-22T19:38:31.486Z,53.79
2023-09-22T19:40:58.269Z,53.78
2023-09-22T19:43:26.281Z,53.98
2023-09-22T19:45:52.818Z,53.55
2023-09-22T19:48:19.302Z,53.41
2023-09-22T19:50:47.808Z,53.42
2023-09-22T19:53:14.476Z,53.16
2023-09-22T19:55:43.146Z,52.89
2023-09-22T19:58:09.608Z,53.26
2023-09-22T20:00:40.874Z,53.19
2023-09-22T20:03:07.893Z,52.86
2023-09-22T20:05:34.431Z,53.14
2023-09-22T20:08:00.894Z,53.04
2023-09-22T20:10:27.433Z,53.05
2023-09-22T20:12:53.938Z,53.11
2023-09-22T20:15:20.947Z,52.96
2023-09-22T20:17:47.493Z,52.74
2023-09-22T20:20:14.230Z,52.93
2023-09-22T20:22:40.849Z,52.61
2023-09-22T20:25:07.583Z,52.78
2023-09-22T20:27:34.198Z,52.98
2023-09-22T20:30:00.683Z,52.93
2023-09-22T20:32:27.341Z,53.04
2023-09-22T20:34:54.783Z,53.19
2023-09-22T20:37:21.631Z,53.04
2023-09-22T20:39:48.661Z,53.06
2023-09-22T20:42:15.375Z,53.29
2023-09-22T20:44:42.662Z,53.18
2023-09-22T20:47:11.140Z,53.37
2023-09-22T20:49:37.983Z,53.51
2023-09-22T20:52:04.978Z,53.56
2023-09-22T20:54:34.345Z,53.53
2023-09-22T20:57:01.104Z,53.38
2023-09-22T20:59:28.066Z,53.65
2023-09-22T21:01:54.565Z,53.51
2023-09-22T21:04:21.374Z,53.55
2023-09-22T21:06:50.196Z,53.76
2023-09-22T21:09:22.458Z,53.70
2023-09-22T21:11:49.300Z,53.80
2023-09-22T21:14:16.358Z,53.90
2023-09-22T21:16:42.869Z,53.72
2023-09-22T21:19:09.429Z,53.85
2023-09-22T21:21:35.960Z,53.92
2023-09-22T21:24:02.407Z,53.94
2023-09-22T21:26:28.884Z,53.84
2023-09-22T21:28:58.572Z,53.76
2023-09-22T21:31:25.478Z,53.87
2023-09-22T21:33:51.991Z,53.98
2023-09-22T21:36:19.060Z,53.80
2023-09-22T21:38:45.748Z,53.70
2023-09-22T21:41:13.053Z,53.67
2023-09-22T21:43:40.182Z,53.68
2023-09-22T21:46:08.213Z,53.67
2023-09-22T21:48:35.364Z,53.67
2023-09-22T21:51:02.395Z,53.54
2023-09-22T21:53:31.728Z,53.61
2023-09-22T21:55:58.610Z,53.72
2023-09-22T21:58:28.254Z,53.74
2023-09-22T22:00:55.208Z,53.79
2023-09-22T22:03:22.455Z,53.58
2023-09-22T22:05:49.051Z,53.61
2023-09-22T22:08:18.685Z,53.57
2023-09-22T22:10:49.994Z,53.90
2023-09-22T22:13:21.259Z,53.93
2023-09-22T22:15:48.379Z,53.88
2023-09-22T22:18:15.668Z,53.69
2023-09-22T22:20:42.850Z,53.95
2023-09-22T22:23:14.037Z,53.93
2023-09-22T22:25:40.945Z,54.11
2023-09-22T22:28:07.545Z,53.88
2023-09-22T22:30:36.456Z,54.08
2023-09-22T22:33:08.199Z,54.12
2023-09-22T22:35:36.429Z,53.84
2023-09-22T22:38:05.986Z,54.02
2023-09-22T22:40:37.903Z,53.75
2023-09-22T22:43:06.536Z,53.93
2023-09-22T22:45:34.014Z,53.81
2023-09-22T22:48:01.490Z,53.95
2023-09-22T22:50:28.860Z,53.78
2023-09-22T22:52:55.345Z,53.65
2023-09-22T22:55:24.854Z,53.76
2023-09-22T22:57:51.928Z,53.74
2023-09-22T23:00:21.090Z,53.54
2023-09-22T23:02:51.564Z,53.71
2023-09-22T23:05:19.021Z,53.81
2023-09-22T23:07:47.431Z,53.69
2023-09-22T23:10:16.815Z,53.88
2023-09-22T23:12:44.639Z,53.72
2023-09-22T23:15:13.738Z,53.62
2023-09-22T23:17:43.401Z,53.60
2023-09-22T23:20:10.883Z,53.53
2023-09-22T23:22:39.003Z,53.75
2023-09-22T23:25:08.226Z,53.68
2023-09-22T23:27:41.409Z,53.66
2023-09-22T23:30:09.702Z,53.79
2023-09-22T23:32:36.323Z,53.77
2023-09-22T23:35:09.436Z,53.69
2023-09-22T23:37:38.802Z,53.82
2023-09-22T23:40:05.881Z,53.56
2023-09-22T23:42:32.376Z,53.49
2023-09-22T23:44:58.849Z,53.47
2023-09-22T23:47:26.699Z,53.62
2023-09-22T23:49:57.087Z,53.54
2023-09-22T23:52:24.345Z,53.36
2023-09-22T23:54:50.817Z,53.41
2023-09-22T23:57:18.343Z,53.48
2023-09-22T23:59:46.241Z,53.31
